createdAt,value
2023-04-05T03:01:44.602Z,99.90
2023-04-05T03:04:12.315Z,99.90
2023-04-05T03:06:39.570Z,99.90
2023-04-05T03:09:07.717Z,99.90
2023-04-05T03:11:34.993Z,99.90
2023-04-05T03:14:02.354Z,99.90
2023-04-05T03:16:29.992Z,99.90
2023-04-05T03:18:57.271Z,99.90
2023-04-05T03:21:24.586Z,99.90
2023-04-05T03:23:51.836Z,99.90
2023-04-05T03:26:19.110Z,99.90
2023-04-05T03:28:46.572Z,99.90
2023-04-05T03:31:13.847Z,99.90
2023-04-05T03:33:41.079Z,99.90
2023-04-05T03:36:08.936Z,99.90
2023-04-05T03:38:36.228Z,99.90
2023-04-05T03:41:03.479Z,99.90
2023-04-05T03:43:30.744Z,99.90
2023-04-05T03:45:58.271Z,99.90
2023-04-05T03:48:25.539Z,99.90
2023-04-05T03:50:52.745Z,99.90
2023-04-05T03:53:19.963Z,99.90
2023-04-05T03:55:49.602Z,99.90
2023-04-05T03:58:17.298Z,99.90
2023-04-05T04:00:44.582Z,99.90
2023-04-05T04:03:11.834Z,99.90
2023-04-05T04:05:39.632Z,99.90
2023-04-05T04:08:07.231Z,99.90
2023-04-05T04:10:35.356Z,99.90
2023-04-05T04:13:02.686Z,99.90
2023-04-05T04:15:29.933Z,99.90
2023-04-05T04:17:57.398Z,99.90
2023-04-05T04:20:24.607Z,99.90
2023-04-05T04:22:53.957Z,99.90
2023-04-05T04:25:22.296Z,99.90
2023-04-05T04:27:50.616Z,99.90
2023-04-05T04:30:17.954Z,99.90
2023-04-05T04:32:51.766Z,99.90
2023-04-05T04:35:21.113Z,99.90
2023-04-05T04:37:53.338Z,99.90
2023-04-05T04:40:22.744Z,99.90
2023-04-05T04:42:50.466Z,99.90
2023-04-05T04:45:19.611Z,99.90
2023-04-05T04:47:49.244Z,99.90
2023-04-05T04:50:19.173Z,99.90
2023-04-05T04:52:47.107Z,99.90
2023-04-05T04:55:14.668Z,99.90
2023-04-05T04:57:42.786Z,99.90
2023-04-05T05:00:15.618Z,99.90
2023-04-05T05:02:44.225Z,99.90
2023-04-05T05:05:11.884Z,99.90
2023-04-05T05:07:43.794Z,99.90
2023-04-05T05:12:39.303Z,99.90
2023-04-05T05:15:07.069Z,99.90
2023-04-05T05:17:35.309Z,99.90
2023-04-05T05:20:04.344Z,99.90
2023-04-05T05:22:31.702Z,99.90
2023-04-05T05:24:58.997Z,99.90
2023-04-05T05:27:26.648Z,99.90
2023-04-05T05:29:53.951Z,99.90
2023-04-05T05:32:21.364Z,99.90
2023-04-05T05:34:48.819Z,99.90
2023-04-05T05:37:17.153Z,99.90
2023-04-05T05:39:47.134Z,99.90
2023-04-05T05:42:14.354Z,99.90
2023-04-05T05:44:41.720Z,99.90
2023-04-05T05:47:08.951Z,99.90
2023-04-05T05:49:36.176Z,99.90
2023-04-05T05:52:04.385Z,99.90
2023-04-05T05:54:31.653Z,99.90
2023-04-05T05:57:16.986Z,99.90
2023-04-05T05:59:44.243Z,99.90
2023-04-05T06:02:12.558Z,99.90
2023-04-05T06:04:39.771Z,99.90
2023-04-05T06:07:07.410Z,99.90
2023-04-05T06:09:35.418Z,99.90
2023-04-05T06:12:02.969Z,99.90
2023-04-05T06:14:30.266Z,99.90
2023-04-05T06:16:57.657Z,99.90
2023-04-05T06:19:24.920Z,99.90
2023-04-05T06:21:52.228Z,99.90
2023-04-05T06:24:19.462Z,99.90
2023-04-05T06:26:46.628Z,99.90
2023-04-05T06:29:13.973Z,99.90
2023-04-05T06:31:42.759Z,99.90
2023-04-05T06:34:10.079Z,99.90
2023-04-05T06:36:37.378Z,99.90
2023-04-05T06:39:04.961Z,99.90
2023-04-05T06:41:32.211Z,99.90
2023-04-05T06:43:59.450Z,97.20
2023-04-05T06:46:26.749Z,94.90
2023-04-05T06:48:54.088Z,92.50
2023-04-05T06:51:21.335Z,94.30
2023-04-05T06:53:48.588Z,93.40
2023-04-05T06:56:15.994Z,90.80
2023-04-05T06:58:44.155Z,87.80
2023-04-05T07:01:11.431Z,86.60
2023-04-05T07:03:38.642Z,82.10
2023-04-05T07:06:06.295Z,85.00
2023-04-05T07:08:33.734Z,84.30
2023-04-05T07:11:01.107Z,81.10
2023-04-05T07:13:28.584Z,76.50
2023-04-05T07:16:03.515Z,76.20
2023-04-05T07:18:31.228Z,77.10
2023-04-05T07:21:04.682Z,74.90
2023-04-05T07:23:32.108Z,73.70
2023-04-05T07:26:05.033Z,70.90
2023-04-05T07:28:33.849Z,67.60
2023-04-05T07:31:01.970Z,70.20
2023-04-05T07:33:29.388Z,68.30
2023-04-05T07:35:57.173Z,67.90
2023-04-05T07:38:24.749Z,67.10
2023-04-05T07:40:52.438Z,71.50
2023-04-05T07:43:19.962Z,66.20
2023-04-05T07:45:47.276Z,64.10
2023-04-05T07:48:14.481Z,62.50
2023-04-05T07:50:42.569Z,64.10
2023-04-05T07:53:10.028Z,63.00
2023-04-05T07:55:40.086Z,59.70
2023-04-05T07:58:07.366Z,58.60
2023-04-05T08:00:34.644Z,57.90
2023-04-05T08:03:02.539Z,60.70
2023-04-05T08:05:30.374Z,55.30
2023-04-05T08:07:58.351Z,52.60
2023-04-05T08:10:26.200Z,52.10
2023-04-05T08:12:54.246Z,53.20
2023-04-05T08:15:21.519Z,53.70
2023-04-05T08:17:48.798Z,50.90
2023-04-05T08:20:16.120Z,51.40
2023-04-05T08:22:43.390Z,52.10
2023-04-05T08:25:10.817Z,51.40
2023-04-05T08:27:38.073Z,53.60
2023-04-05T08:30:06.204Z,51.50
2023-04-05T08:32:34.530Z,51.10
2023-04-05T08:35:02.145Z,51.00
2023-04-05T08:37:29.432Z,52.20
2023-04-05T08:39:56.719Z,52.40
2023-04-05T08:42:31.865Z,52.30
2023-04-05T08:45:03.593Z,53.40
2023-04-05T08:47:31.930Z,52.20
2023-04-05T08:49:59.344Z,52.00
2023-04-05T08:52:26.765Z,52.90
2023-04-05T08:54:55.413Z,54.90
2023-04-05T08:57:27.541Z,55.20
2023-04-05T08:59:57.416Z,55.60
2023-04-05T09:02:25.591Z,57.50
2023-04-05T09:04:53.481Z,59.20
2023-04-05T09:07:21.769Z,59.80
2023-04-05T09:09:53.729Z,59.20
2023-04-05T09:12:24.869Z,59.50
2023-04-05T09:14:52.564Z,59.70
2023-04-05T09:17:19.973Z,60.40
2023-04-05T09:19:50.458Z,63.10
2023-04-05T09:22:18.648Z,62.20
2023-04-05T09:24:47.135Z,62.30
2023-04-05T09:27:16.808Z,61.60
2023-04-05T09:29:52.788Z,61.30
2023-04-05T09:32:21.242Z,60.70
2023-04-05T09:34:48.651Z,63.30
2023-04-05T09:37:16.938Z,62.10
2023-04-05T09:39:45.428Z,61.90
2023-04-05T09:42:15.799Z,60.50
2023-04-05T09:44:55.098Z,60.30
2023-04-05T09:47:25.294Z,60.60
2023-04-05T09:49:52.551Z,62.50
2023-04-05T09:52:21.607Z,60.20
2023-04-05T09:54:49.826Z,61.90
2023-04-05T09:57:18.351Z,60.60
2023-04-05T09:59:47.281Z,61.20
2023-04-05T10:02:15.654Z,59.60
2023-04-05T10:04:44.887Z,60.90
2023-04-05T10:07:14.823Z,63.50
2023-04-05T10:09:43.956Z,62.30
2023-04-05T10:12:24.144Z,65.20
2023-04-05T10:14:51.502Z,66.20
2023-04-05T10:17:31.889Z,65.00
2023-04-05T10:20:41.545Z,61.90
2023-04-05T10:23:22.679Z,62.60
2023-04-05T10:25:53.687Z,61.30
2023-04-05T10:28:34.651Z,58.40
2023-04-05T10:31:04.600Z,61.90
2023-04-05T10:33:47.922Z,62.40
2023-04-05T10:36:27.580Z,61.90
2023-04-05T10:39:22.110Z,60.00
2023-04-05T10:41:54.181Z,60.00
2023-04-05T10:44:26.135Z,60.00
2023-04-05T10:46:56.631Z,59.30
2023-04-05T10:49:57.302Z,59.30
2023-04-05T10:52:25.075Z,57.40
2023-04-05T10:54:53.219Z,58.00
2023-04-05T10:57:21.327Z,57.70
2023-04-05T10:59:50.067Z,58.10
2023-04-05T11:02:19.136Z,58.80
2023-04-05T11:04:46.403Z,59.80
2023-04-05T11:07:18.346Z,59.80
2023-04-05T11:10:05.377Z,59.00
2023-04-05T11:12:52.477Z,59.80
2023-04-05T11:15:29.299Z,60.00
2023-04-05T11:18:09.874Z,61.50
2023-04-05T11:20:55.846Z,59.30
2023-04-05T11:23:24.919Z,62.90
2023-04-05T11:26:06.146Z,61.60
2023-04-05T11:28:39.614Z,58.10
2023-04-05T11:31:18.539Z,58.60
2023-04-05T11:33:55.313Z,55.80
2023-04-05T11:36:32.286Z,56.60
2023-04-05T11:39:20.237Z,56.80
2023-04-05T11:42:15.978Z,57.70
2023-04-05T11:44:47.975Z,56.40
2023-04-05T11:47:21.468Z,57.10
2023-04-05T11:49:52.212Z,55.00
2023-04-05T11:52:21.802Z,54.70
2023-04-05T11:54:50.051Z,55.70
2023-04-05T11:57:22.902Z,61.20
2023-04-05T11:59:54.268Z,61.80
2023-04-05T12:02:22.516Z,62.50
2023-04-05T12:04:57.241Z,57.20
2023-04-05T12:07:29.028Z,56.50
2023-04-05T12:10:04.333Z,59.00
2023-04-05T12:12:42.767Z,59.00
2023-04-05T12:15:14.681Z,59.90
2023-04-05T12:17:43.988Z,60.70
2023-04-05T12:20:13.983Z,58.50
2023-04-05T12:22:43.539Z,57.60
2023-04-05T12:25:11.406Z,59.80
2023-04-05T12:27:39.039Z,58.90
2023-04-05T12:30:07.145Z,56.80
2023-04-05T12:32:57.417Z,55.50
2023-04-05T12:35:32.680Z,54.50
2023-04-05T12:38:05.873Z,55.20
2023-04-05T12:40:37.034Z,55.60
2023-04-05T12:43:08.292Z,56.20
2023-04-05T12:45:43.793Z,58.20
2023-04-05T12:48:15.882Z,55.90
2023-04-05T12:50:48.200Z,55.40
2023-04-05T12:53:20.993Z,57.30
2023-04-05T12:55:52.505Z,59.00
2023-04-05T12:58:21.502Z,56.90
2023-04-05T13:00:48.941Z,57.70
2023-04-05T13:03:18.379Z,59.00
2023-04-05T13:05:47.098Z,57.70
2023-04-05T13:08:14.858Z,61.50
2023-04-05T13:10:42.030Z,60.50
2023-04-05T13:13:09.226Z,60.50
2023-04-05T13:15:36.477Z,61.50
2023-04-05T13:18:03.798Z,61.60
2023-04-05T13:20:31.660Z,65.00
2023-04-05T13:23:00.247Z,64.40
2023-04-05T13:25:27.773Z,63.30
2023-04-05T13:27:55.044Z,64.00
2023-04-05T13:30:22.332Z,61.60
2023-04-05T13:32:49.643Z,62.30
2023-04-05T13:35:18.159Z,59.50
2023-04-05T13:37:45.485Z,59.50
2023-04-05T13:40:15.389Z,59.60
2023-04-05T13:42:43.096Z,58.10
2023-04-05T13:45:11.036Z,55.90
2023-04-05T13:47:38.280Z,55.40
2023-04-05T13:50:06.288Z,55.80
2023-04-05T13:52:33.640Z,55.10
2023-04-05T13:55:02.921Z,63.40
2023-04-05T13:57:31.747Z,65.30
2023-04-05T13:59:59.067Z,62.50
2023-04-05T14:02:27.285Z,61.20
2023-04-05T14:04:55.001Z,59.60
2023-04-05T14:07:23.362Z,59.10
2023-04-05T14:09:50.917Z,57.40
2023-04-05T14:12:18.354Z,56.80
2023-04-05T14:14:45.697Z,58.40
2023-04-05T14:17:13.215Z,56.80
2023-04-05T14:19:40.580Z,57.20
2023-04-05T14:22:07.935Z,57.30
2023-04-05T14:24:35.551Z,58.00
2023-04-05T14:27:02.948Z,57.70
2023-04-05T14:29:30.261Z,57.90
2023-04-05T14:31:57.823Z,57.40
2023-04-05T14:34:25.426Z,57.30
2023-04-05T14:36:52.706Z,57.60
2023-04-05T14:39:19.993Z,58.10
2023-04-05T14:41:52.407Z,56.70
2023-04-05T14:44:19.780Z,57.10
2023-04-05T14:46:48.619Z,57.40
2023-04-05T14:49:17.518Z,58.30
2023-04-05T14:51:44.853Z,59.20
2023-04-05T14:54:12.214Z,62.30
2023-04-05T14:56:39.514Z,59.70
2023-04-05T14:59:06.853Z,57.90
2023-04-05T15:01:34.219Z,57.00
2023-04-05T15:04:01.708Z,58.70
2023-04-05T15:06:29.111Z,60.40
2023-04-05T15:08:56.398Z,58.90
2023-04-05T15:11:23.744Z,61.20
2023-04-05T15:13:51.263Z,59.80
2023-04-05T15:16:18.630Z,61.90
2023-04-05T15:18:47.186Z,61.30
2023-04-05T15:21:14.575Z,61.20
2023-04-05T15:23:41.990Z,58.80
2023-04-05T15:26:09.288Z,58.30
2023-04-05T15:28:36.650Z,57.60
2023-04-05T15:31:04.007Z,60.10
2023-04-05T15:33:31.787Z,61.10
2023-04-05T15:35:59.109Z,60.10
2023-04-05T15:38:26.500Z,59.60
2023-04-05T15:40:54.370Z,62.70
2023-04-05T15:43:22.304Z,62.30
2023-04-05T15:45:49.613Z,59.20
2023-04-05T15:48:17.023Z,58.60
2023-04-05T15:50:44.325Z,60.30
2023-04-05T15:53:11.608Z,60.70
2023-04-05T15:55:38.910Z,61.20
2023-04-05T15:58:07.384Z,61.60
2023-04-05T16:00:34.734Z,61.10
2023-04-05T16:03:02.660Z,61.70
2023-04-05T16:05:30.673Z,63.90
2023-04-05T16:07:58.004Z,62.70
2023-04-05T16:10:25.825Z,61.90
2023-04-05T16:12:54.221Z,62.30
2023-04-05T16:15:21.502Z,61.10
2023-04-05T16:17:48.830Z,60.10
2023-04-05T16:20:17.480Z,59.30
2023-04-05T16:22:45.799Z,59.50
2023-04-05T16:25:13.186Z,60.30
2023-04-05T16:27:40.591Z,62.00
2023-04-05T16:30:08.649Z,62.70
2023-04-05T16:32:36.023Z,61.80
2023-04-05T16:35:03.476Z,63.60
2023-04-05T16:37:31.153Z,64.00
2023-04-05T16:39:58.434Z,63.60
2023-04-05T16:42:25.812Z,63.30
2023-04-05T16:44:53.213Z,63.90
2023-04-05T16:47:20.678Z,64.70
2023-04-05T16:49:48.023Z,66.00
2023-04-05T16:52:15.498Z,64.70
2023-04-05T16:54:42.977Z,65.60
2023-04-05T16:57:10.472Z,66.10
2023-04-05T16:59:37.767Z,66.30
2023-04-05T17:02:05.168Z,66.00
2023-04-05T17:04:32.420Z,67.00
2023-04-05T17:06:59.824Z,66.10
2023-04-05T17:09:28.976Z,66.70
2023-04-05T17:11:56.739Z,66.40
2023-04-05T17:14:24.197Z,67.00
2023-04-05T17:16:51.764Z,68.70
2023-04-05T17:19:19.016Z,69.50
2023-04-05T17:21:48.581Z,69.30
2023-04-05T17:24:19.199Z,70.10
2023-04-05T17:26:46.800Z,70.70
2023-04-05T17:29:14.180Z,70.80
2023-04-05T17:31:42.236Z,70.30
2023-04-05T17:34:13.145Z,70.80
2023-04-05T17:36:40.621Z,72.00
2023-04-05T17:39:07.934Z,72.10
2023-04-05T17:41:35.405Z,72.30
2023-04-05T17:44:02.741Z,72.90
2023-04-05T17:46:41.644Z,73.20
2023-04-05T17:49:12.107Z,72.90
2023-04-05T17:51:39.632Z,73.30
2023-04-05T17:54:06.963Z,73.90
2023-04-05T17:56:34.217Z,73.80
2023-04-05T17:59:01.578Z,74.80
2023-04-05T18:01:29.317Z,73.80
2023-04-05T18:03:57.081Z,74.40
2023-04-05T18:06:24.470Z,74.80
2023-04-05T18:08:51.916Z,74.40
2023-04-05T18:11:19.193Z,73.90
2023-04-05T18:13:47.526Z,74.90
2023-04-05T18:16:14.826Z,74.80
2023-04-05T18:18:42.686Z,74.90
2023-04-05T18:21:10.081Z,74.90
2023-04-05T18:23:37.342Z,75.50
2023-04-05T18:26:08.041Z,75.70
2023-04-05T18:28:35.423Z,76.10
2023-04-05T18:31:02.751Z,78.60
2023-04-05T18:33:30.045Z,79.50
2023-04-05T18:35:57.381Z,80.10
2023-04-05T18:38:24.761Z,80.80
2023-04-05T18:41:07.074Z,81.50
2023-04-05T18:43:34.432Z,81.80
2023-04-05T18:46:01.802Z,82.30
2023-04-05T18:48:29.199Z,82.60
2023-04-05T18:50:56.901Z,82.10
2023-04-05T18:53:24.931Z,82.50
2023-04-05T18:55:53.066Z,82.60
2023-04-05T18:58:20.849Z,83.00
2023-04-05T19:00:48.170Z,82.70
2023-04-05T19:03:16.371Z,83.20
2023-04-05T19:05:50.481Z,83.30
2023-04-05T19:08:19.078Z,83.50
2023-04-05T19:10:46.421Z,83.90
2023-04-05T19:13:13.796Z,84.40
2023-04-05T19:15:41.185Z,84.70
2023-04-05T19:18:08.701Z,85.10
2023-04-05T19:20:36.182Z,85.60
2023-04-05T19:23:03.501Z,86.10
2023-04-05T19:25:30.925Z,86.20
2023-04-05T19:27:58.339Z,86.50
2023-04-05T19:30:25.698Z,86.70
2023-04-05T19:32:54.638Z,87.20
2023-04-05T19:35:22.049Z,87.60
2023-04-05T19:37:49.331Z,87.80
2023-04-05T19:40:16.623Z,87.60
2023-04-05T19:42:47.600Z,88.00
2023-04-05T19:45:25.594Z,88.70
2023-04-05T19:47:54.304Z,89.70
2023-04-05T19:50:49.103Z,90.20
2023-04-05T19:53:49.188Z,90.50
2023-04-05T19:56:20.314Z,91.10
2023-04-05T19:58:49.850Z,91.20
2023-04-05T20:01:47.209Z,91.30
2023-04-05T20:04:19.795Z,91.70
2023-04-05T20:06:52.950Z,92.70
2023-04-05T20:09:22.400Z,93.20
2023-04-05T20:11:54.319Z,93.50
2023-04-05T20:14:41.104Z,93.60
2023-04-05T20:17:09.601Z,93.70
2023-04-05T20:19:39.807Z,94.00
2023-04-05T20:22:08.548Z,94.20
2023-04-05T20:24:39.687Z,94.20
2023-04-05T20:27:07.166Z,94.60
2023-04-05T20:29:36.045Z,95.10
2023-04-05T20:32:05.314Z,95.20
2023-04-05T20:34:36.397Z,95.50
2023-04-05T20:37:07.808Z,95.70
2023-04-05T20:39:35.471Z,95.80
2023-04-05T20:42:03.827Z,96.20
2023-04-05T20:44:31.583Z,96.50
2023-04-05T20:46:58.996Z,96.80
2023-04-05T20:49:27.995Z,97.00
2023-04-05T20:51:57.159Z,97.50
2023-04-05T20:54:24.676Z,98.00
2023-04-05T20:56:52.002Z,98.10
2023-04-05T20:59:19.361Z,98.20
